sensor_id;sensor_type;location;lat;lon;timestamp;P1;durP1;ratioP1;P2;durP2;ratioP2
12776;SDS011;6452;41.572;23.732;2023-04-07T00:01:15;3.20;;;3.00;;
12776;SDS011;6452;41.572;23.732;2023-04-07T00:03:41;2.10;;;2.08;;
12776;SDS011;6452;41.572;23.732;2023-04-07T00:06:08;3.22;;;3.00;;
12776;SDS011;6452;41.572;23.732;2023-04-07T00:08:34;3.33;;;3.03;;
12776;SDS011;6452;41.572;23.732;2023-04-07T00:11:00;3.10;;;2.90;;
12776;SDS011;6452;41.572;23.732;2023-04-07T00:13:26;4.75;;;3.15;;
12776;SDS011;6452;41.572;23.732;2023-04-07T00:15:53;4.97;;;3.45;;
12776;SDS011;6452;41.572;23.732;2023-04-07T00:18:19;2.95;;;2.75;;
12776;SDS011;6452;41.572;23.732;2023-04-07T00:20:45;2.55;;;2.42;;
12776;SDS011;6452;41.572;23.732;2023-04-07T00:23:11;3.65;;;3.35;;
12776;SDS011;6452;41.572;23.732;2023-04-07T00:25:38;2.50;;;2.30;;
12776;SDS011;6452;41.572;23.732;2023-04-07T00:28:08;3.25;;;2.97;;
12776;SDS011;6452;41.572;23.732;2023-04-07T00:30:34;2.70;;;2.50;;
12776;SDS011;6452;41.572;23.732;2023-04-07T00:33:00;3.10;;;2.90;;
12776;SDS011;6452;41.572;23.732;2023-04-07T00:35:26;2.63;;;2.50;;
12776;SDS011;6452;41.572;23.732;2023-04-07T00:37:52;3.85;;;3.50;;
12776;SDS011;6452;41.572;23.732;2023-04-07T00:40:18;3.13;;;2.83;;
12776;SDS011;6452;41.572;23.732;2023-04-07T00:42:45;2.92;;;2.72;;
12776;SDS011;6452;41.572;23.732;2023-04-07T00:45:11;3.28;;;2.97;;
12776;SDS011;6452;41.572;23.732;2023-04-07T00:47:37;3.90;;;3.35;;
12776;SDS011;6452;41.572;23.732;2023-04-07T00:50:03;3.15;;;2.90;;
12776;SDS011;6452;41.572;23.732;2023-04-07T00:52:31;3.17;;;2.97;;
12776;SDS011;6452;41.572;23.732;2023-04-07T00:54:57;7.22;;;3.20;;
12776;SDS011;6452;41.572;23.732;2023-04-07T00:57:24;2.42;;;2.33;;
12776;SDS011;6452;41.572;23.732;2023-04-07T00:59:50;3.33;;;3.03;;
12776;SDS011;6452;41.572;23.732;2023-04-07T01:02:33;4.47;;;3.33;;
12776;SDS011;6452;41.572;23.732;2023-04-07T01:07:34;5.47;;;2.85;;
12776;SDS011;6452;41.572;23.732;2023-04-07T01:10:18;2.60;;;2.40;;
12776;SDS011;6452;41.572;23.732;2023-04-07T01:15:18;2.78;;;2.42;;
12776;SDS011;6452;41.572;23.732;2023-04-07T01:17:45;3.50;;;2.78;;
12776;SDS011;6452;41.572;23.732;2023-04-07T01:20:15;2.30;;;2.17;;
12776;SDS011;6452;41.572;23.732;2023-04-07T01:22:44;3.17;;;2.95;;
12776;SDS011;6452;41.572;23.732;2023-04-07T01:25:22;3.05;;;2.75;;
12776;SDS011;6452;41.572;23.732;2023-04-07T01:30:19;4.13;;;3.35;;
12776;SDS011;6452;41.572;23.732;2023-04-07T01:32:49;3.00;;;2.80;;
12776;SDS011;6452;41.572;23.732;2023-04-07T01:35:16;2.47;;;2.38;;
12776;SDS011;6452;41.572;23.732;2023-04-07T01:37:42;3.47;;;3.17;;
12776;SDS011;6452;41.572;23.732;2023-04-07T01:40:11;3.47;;;3.17;;
12776;SDS011;6452;41.572;23.732;2023-04-07T01:42:37;2.88;;;2.67;;
12776;SDS011;6452;41.572;23.732;2023-04-07T01:45:03;2.60;;;2.40;;
12776;SDS011;6452;41.572;23.732;2023-04-07T01:47:30;2.95;;;2.40;;
12776;SDS011;6452;41.572;23.732;2023-04-07T01:49:57;2.67;;;2.40;;
12776;SDS011;6452;41.572;23.732;2023-04-07T01:52:24;2.70;;;2.50;;
12776;SDS011;6452;41.572;23.732;2023-04-07T01:54:51;3.33;;;3.03;;
12776;SDS011;6452;41.572;23.732;2023-04-07T01:57:18;2.53;;;2.33;;
12776;SDS011;6452;41.572;23.732;2023-04-07T01:59:44;2.90;;;2.70;;
12776;SDS011;6452;41.572;23.732;2023-04-07T02:02:10;3.40;;;3.10;;
12776;SDS011;6452;41.572;23.732;2023-04-07T02:04:38;2.70;;;2.50;;
12776;SDS011;6452;41.572;23.732;2023-04-07T02:07:07;3.08;;;2.78;;
12776;SDS011;6452;41.572;23.732;2023-04-07T02:09:38;2.53;;;2.30;;
12776;SDS011;6452;41.572;23.732;2023-04-07T02:12:05;2.92;;;2.72;;
12776;SDS011;6452;41.572;23.732;2023-04-07T02:14:33;4.63;;;2.83;;
12776;SDS011;6452;41.572;23.732;2023-04-07T02:17:00;4.00;;;3.33;;
12776;SDS011;6452;41.572;23.732;2023-04-07T02:19:27;4.05;;;3.50;;
12776;SDS011;6452;41.572;23.732;2023-04-07T02:21:54;3.70;;;3.05;;
12776;SDS011;6452;41.572;23.732;2023-04-07T02:24:21;2.78;;;2.58;;
12776;SDS011;6452;41.572;23.732;2023-04-07T02:26:47;3.45;;;3.22;;
12776;SDS011;6452;41.572;23.732;2023-04-07T02:29:13;3.88;;;2.97;;
12776;SDS011;6452;41.572;23.732;2023-04-07T02:31:39;4.15;;;2.97;;
12776;SDS011;6452;41.572;23.732;2023-04-07T02:34:05;2.75;;;2.65;;
12776;SDS011;6452;41.572;23.732;2023-04-07T02:36:31;5.07;;;3.95;;
12776;SDS011;6452;41.572;23.732;2023-04-07T02:38:57;4.40;;;3.08;;
12776;SDS011;6452;41.572;23.732;2023-04-07T02:41:24;4.13;;;2.83;;
12776;SDS011;6452;41.572;23.732;2023-04-07T02:43:50;4.00;;;3.60;;
12776;SDS011;6452;41.572;23.732;2023-04-07T02:46:16;6.05;;;5.10;;
12776;SDS011;6452;41.572;23.732;2023-04-07T02:48:42;6.28;;;4.63;;
12776;SDS011;6452;41.572;23.732;2023-04-07T02:51:08;8.25;;;6.25;;
12776;SDS011;6452;41.572;23.732;2023-04-07T02:53:35;30.35;;;15.77;;
12776;SDS011;6452;41.572;23.732;2023-04-07T02:56:01;40.60;;;20.90;;
12776;SDS011;6452;41.572;23.732;2023-04-07T02:58:27;26.17;;;14.75;;
12776;SDS011;6452;41.572;23.732;2023-04-07T03:00:53;35.97;;;20.25;;
12776;SDS011;6452;41.572;23.732;2023-04-07T03:03:19;40.22;;;19.85;;
12776;SDS011;6452;41.572;23.732;2023-04-07T03:05:45;41.67;;;20.08;;
12776;SDS011;6452;41.572;23.732;2023-04-07T03:08:12;34.95;;;18.67;;
12776;SDS011;6452;41.572;23.732;2023-04-07T03:10:38;52.75;;;23.63;;
12776;SDS011;6452;41.572;23.732;2023-04-07T03:13:04;34.60;;;19.35;;
12776;SDS011;6452;41.572;23.732;2023-04-07T03:15:30;32.78;;;17.15;;
12776;SDS011;6452;41.572;23.732;2023-04-07T03:17:56;26.42;;;13.82;;
12776;SDS011;6452;41.572;23.732;2023-04-07T03:20:22;22.15;;;12.70;;
12776;SDS011;6452;41.572;23.732;2023-04-07T03:22:49;23.45;;;13.93;;
12776;SDS011;6452;41.572;23.732;2023-04-07T03:25:15;29.75;;;15.80;;
12776;SDS011;6452;41.572;23.732;2023-04-07T03:27:41;22.58;;;14.85;;
12776;SDS011;6452;41.572;23.732;2023-04-07T03:30:07;15.07;;;9.07;;
12776;SDS011;6452;41.572;23.732;2023-04-07T03:32:34;11.15;;;8.68;;
12776;SDS011;6452;41.572;23.732;2023-04-07T03:35:01;6.68;;;5.22;;
12776;SDS011;6452;41.572;23.732;2023-04-07T03:37:27;4.25;;;3.85;;
12776;SDS011;6452;41.572;23.732;2023-04-07T03:39:53;4.40;;;3.60;;
12776;SDS011;6452;41.572;23.732;2023-04-07T03:42:19;4.05;;;3.72;;
12776;SDS011;6452;41.572;23.732;2023-04-07T03:44:45;7.00;;;3.80;;
12776;SDS011;6452;41.572;23.732;2023-04-07T03:47:11;3.45;;;3.25;;
12776;SDS011;6452;41.572;23.732;2023-04-07T03:49:37;6.78;;;3.90;;
12776;SDS011;6452;41.572;23.732;2023-04-07T03:52:04;5.07;;;3.65;;
12776;SDS011;6452;41.572;23.732;2023-04-07T03:54:30;3.95;;;3.65;;
12776;SDS011;6452;41.572;23.732;2023-04-07T03:56:56;3.90;;;3.22;;
12776;SDS011;6452;41.572;23.732;2023-04-07T03:59:22;3.80;;;3.50;;
12776;SDS011;6452;41.572;23.732;2023-04-07T04:01:48;10.40;;;3.90;;
12776;SDS011;6452;41.572;23.732;2023-04-07T04:04:14;6.28;;;3.95;;
12776;SDS011;6452;41.572;23.732;2023-04-07T04:06:40;3.58;;;3.28;;
12776;SDS011;6452;41.572;23.732;2023-04-07T04:09:06;6.05;;;3.42;;
12776;SDS011;6452;41.572;23.732;2023-04-07T04:11:33;4.07;;;3.67;;
12776;SDS011;6452;41.572;23.732;2023-04-07T04:13:59;3.47;;;3.17;;
12776;SDS011;6452;41.572;23.732;2023-04-07T04:16:25;3.60;;;2.92;;
12776;SDS011;6452;41.572;23.732;2023-04-07T04:18:56;4.20;;;3.67;;
12776;SDS011;6452;41.572;23.732;2023-04-07T04:21:22;3.75;;;3.45;;
12776;SDS011;6452;41.572;23.732;2023-04-07T04:23:48;2.75;;;2.55;;
12776;SDS011;6452;41.572;23.732;2023-04-07T04:26:14;3.50;;;3.22;;
12776;SDS011;6452;41.572;23.732;2023-04-07T04:28:40;3.63;;;3.28;;
12776;SDS011;6452;41.572;23.732;2023-04-07T04:31:06;3.88;;;3.53;;
12776;SDS011;6452;41.572;23.732;2023-04-07T04:33:33;3.45;;;3.25;;
12776;SDS011;6452;41.572;23.732;2023-04-07T04:35:59;3.42;;;3.13;;
12776;SDS011;6452;41.572;23.732;2023-04-07T04:38:25;3.63;;;3.33;;
12776;SDS011;6452;41.572;23.732;2023-04-07T04:40:51;4.00;;;3.70;;
12776;SDS011;6452;41.572;23.732;2023-04-07T04:43:17;5.70;;;4.70;;
12776;SDS011;6452;41.572;23.732;2023-04-07T04:45:43;6.70;;;5.07;;
12776;SDS011;6452;41.572;23.732;2023-04-07T04:48:10;4.57;;;3.97;;
12776;SDS011;6452;41.572;23.732;2023-04-07T04:50:36;5.85;;;4.10;;
12776;SDS011;6452;41.572;23.732;2023-04-07T04:53:02;6.88;;;4.63;;
12776;SDS011;6452;41.572;23.732;2023-04-07T04:55:32;8.30;;;4.95;;
12776;SDS011;6452;41.572;23.732;2023-04-07T04:57:58;11.73;;;7.82;;
12776;SDS011;6452;41.572;23.732;2023-04-07T05:00:25;5.82;;;4.93;;
12776;SDS011;6452;41.572;23.732;2023-04-07T05:02:51;4.63;;;3.97;;
12776;SDS011;6452;41.572;23.732;2023-04-07T05:05:18;3.58;;;3.33;;
12776;SDS011;6452;41.572;23.732;2023-04-07T05:07:44;4.47;;;4.07;;
12776;SDS011;6452;41.572;23.732;2023-04-07T05:10:10;4.47;;;4.03;;
12776;SDS011;6452;41.572;23.732;2023-04-07T05:12:40;3.42;;;3.17;;
12776;SDS011;6452;41.572;23.732;2023-04-07T05:15:06;4.03;;;3.65;;
12776;SDS011;6452;41.572;23.732;2023-04-07T05:17:32;3.72;;;3.40;;
12776;SDS011;6452;41.572;23.732;2023-04-07T05:19:58;3.13;;;2.85;;
12776;SDS011;6452;41.572;23.732;2023-04-07T05:22:25;4.57;;;3.95;;
12776;SDS011;6452;41.572;23.732;2023-04-07T05:24:51;3.72;;;3.42;;
12776;SDS011;6452;41.572;23.732;2023-04-07T05:27:17;4.43;;;3.85;;
12776;SDS011;6452;41.572;23.732;2023-04-07T05:29:43;4.03;;;3.72;;
12776;SDS011;6452;41.572;23.732;2023-04-07T05:32:09;4.90;;;3.60;;
12776;SDS011;6452;41.572;23.732;2023-04-07T05:34:36;3.90;;;3.60;;
12776;SDS011;6452;41.572;23.732;2023-04-07T05:37:02;5.32;;;4.55;;
12776;SDS011;6452;41.572;23.732;2023-04-07T05:39:28;4.95;;;4.13;;
12776;SDS011;6452;41.572;23.732;2023-04-07T05:41:54;5.47;;;4.63;;
12776;SDS011;6452;41.572;23.732;2023-04-07T05:44:22;10.50;;;4.28;;
12776;SDS011;6452;41.572;23.732;2023-04-07T05:46:48;5.55;;;5.05;;
12776;SDS011;6452;41.572;23.732;2023-04-07T05:49:14;5.75;;;5.18;;
12776;SDS011;6452;41.572;23.732;2023-04-07T05:51:40;6.32;;;5.15;;
12776;SDS011;6452;41.572;23.732;2023-04-07T05:54:06;5.90;;;5.32;;
12776;SDS011;6452;41.572;23.732;2023-04-07T05:56:33;5.60;;;5.10;;
12776;SDS011;6452;41.572;23.732;2023-04-07T05:58:59;5.15;;;4.68;;
12776;SDS011;6452;41.572;23.732;2023-04-07T06:01:26;5.45;;;4.40;;
12776;SDS011;6452;41.572;23.732;2023-04-07T06:03:52;5.07;;;4.57;;
12776;SDS011;6452;41.572;23.732;2023-04-07T06:06:18;4.70;;;3.97;;
12776;SDS011;6452;41.572;23.732;2023-04-07T06:08:48;5.10;;;4.60;;
12776;SDS011;6452;41.572;23.732;2023-04-07T06:11:14;5.05;;;4.55;;
12776;SDS011;6452;41.572;23.732;2023-04-07T06:13:40;5.63;;;4.65;;
12776;SDS011;6452;41.572;23.732;2023-04-07T06:16:06;4.43;;;4.00;;
12776;SDS011;6452;41.572;23.732;2023-04-07T06:18:32;4.30;;;3.90;;
12776;SDS011;6452;41.572;23.732;2023-04-07T06:20:59;7.03;;;5.00;;
12776;SDS011;6452;41.572;23.732;2023-04-07T06:23:25;4.63;;;4.13;;
12776;SDS011;6452;41.572;23.732;2023-04-07T06:25:55;5.25;;;4.60;;
12776;SDS011;6452;41.572;23.732;2023-04-07T06:28:22;4.28;;;3.88;;
12776;SDS011;6452;41.572;23.732;2023-04-07T06:30:48;7.10;;;3.95;;
12776;SDS011;6452;41.572;23.732;2023-04-07T06:33:14;4.90;;;4.30;;
12776;SDS011;6452;41.572;23.732;2023-04-07T06:35:40;4.55;;;4.15;;
12776;SDS011;6452;41.572;23.732;2023-04-07T06:38:07;5.05;;;4.55;;
12776;SDS011;6452;41.572;23.732;2023-04-07T06:40:35;6.82;;;4.97;;
12776;SDS011;6452;41.572;23.732;2023-04-07T06:43:01;5.28;;;4.80;;
12776;SDS011;6452;41.572;23.732;2023-04-07T06:45:28;12.60;;;8.27;;
12776;SDS011;6452;41.572;23.732;2023-04-07T06:47:55;6.45;;;5.53;;
12776;SDS011;6452;41.572;23.732;2023-04-07T06:50:21;5.80;;;4.43;;
12776;SDS011;6452;41.572;23.732;2023-04-07T06:52:47;5.57;;;4.82;;
12776;SDS011;6452;41.572;23.732;2023-04-07T06:55:13;7.10;;;5.53;;
12776;SDS011;6452;41.572;23.732;2023-04-07T06:57:39;4.55;;;4.15;;
12776;SDS011;6452;41.572;23.732;2023-04-07T07:00:05;5.78;;;4.78;;
12776;SDS011;6452;41.572;23.732;2023-04-07T07:02:32;7.07;;;5.22;;
12776;SDS011;6452;41.572;23.732;2023-04-07T07:04:58;8.30;;;5.50;;
12776;SDS011;6452;41.572;23.732;2023-04-07T07:07:24;8.90;;;4.70;;
12776;SDS011;6452;41.572;23.732;2023-04-07T07:09:50;7.50;;;5.90;;
12776;SDS011;6452;41.572;23.732;2023-04-07T07:12:16;6.40;;;5.05;;
12776;SDS011;6452;41.572;23.732;2023-04-07T07:14:43;5.05;;;4.55;;
12776;SDS011;6452;41.572;23.732;2023-04-07T07:17:08;4.57;;;3.90;;
12776;SDS011;6452;41.572;23.732;2023-04-07T07:19:35;4.47;;;4.07;;
12776;SDS011;6452;41.572;23.732;2023-04-07T07:22:01;5.25;;;4.72;;
12776;SDS011;6452;41.572;23.732;2023-04-07T07:24:29;4.43;;;4.03;;
12776;SDS011;6452;41.572;23.732;2023-04-07T07:26:55;4.93;;;4.53;;
12776;SDS011;6452;41.572;23.732;2023-04-07T07:29:21;4.78;;;4.18;;
12776;SDS011;6452;41.572;23.732;2023-04-07T07:31:47;4.00;;;3.60;;
12776;SDS011;6452;41.572;23.732;2023-04-07T07:34:14;3.95;;;3.17;;
12776;SDS011;6452;41.572;23.732;2023-04-07T07:36:44;3.72;;;3.50;;
12776;SDS011;6452;41.572;23.732;2023-04-07T07:39:10;4.85;;;3.95;;
12776;SDS011;6452;41.572;23.732;2023-04-07T07:41:36;3.67;;;3.45;;
12776;SDS011;6452;41.572;23.732;2023-04-07T07:44:02;4.00;;;3.70;;
12776;SDS011;6452;41.572;23.732;2023-04-07T07:46:29;3.35;;;3.08;;
12776;SDS011;6452;41.572;23.732;2023-04-07T07:48:59;3.22;;;3.00;;
12776;SDS011;6452;41.572;23.732;2023-04-07T07:51:25;3.35;;;2.95;;
12776;SDS011;6452;41.572;23.732;2023-04-07T07:53:52;3.67;;;3.20;;
12776;SDS011;6452;41.572;23.732;2023-04-07T07:56:18;3.53;;;3.22;;
12776;SDS011;6452;41.572;23.732;2023-04-07T07:58:44;3.20;;;2.83;;
12776;SDS011;6452;41.572;23.732;2023-04-07T08:01:14;2.40;;;2.30;;
12776;SDS011;6452;41.572;23.732;2023-04-07T08:03:41;2.25;;;2.15;;
12776;SDS011;6452;41.572;23.732;2023-04-07T08:06:07;1.95;;;1.85;;
12776;SDS011;6452;41.572;23.732;2023-04-07T08:08:34;6.40;;;2.35;;
12776;SDS011;6452;41.572;23.732;2023-04-07T08:11:00;2.42;;;2.33;;
12776;SDS011;6452;41.572;23.732;2023-04-07T08:13:26;2.95;;;2.75;;
12776;SDS011;6452;41.572;23.732;2023-04-07T08:15:52;2.58;;;2.40;;
12776;SDS011;6452;41.572;23.732;2023-04-07T08:18:18;2.90;;;2.33;;
12776;SDS011;6452;41.572;23.732;2023-04-07T08:20:44;2.28;;;2.17;;
12776;SDS011;6452;41.572;23.732;2023-04-07T08:23:11;2.72;;;2.63;;
12776;SDS011;6452;41.572;23.732;2023-04-07T08:25:37;2.53;;;2.40;;
12776;SDS011;6452;41.572;23.732;2023-04-07T08:28:04;2.63;;;2.42;;
12776;SDS011;6452;41.572;23.732;2023-04-07T08:30:30;2.72;;;2.53;;
12776;SDS011;6452;41.572;23.732;2023-04-07T08:32:56;2.35;;;2.25;;
12776;SDS011;6452;41.572;23.732;2023-04-07T08:35:22;2.42;;;2.33;;
12776;SDS011;6452;41.572;23.732;2023-04-07T08:37:48;3.45;;;3.10;;
12776;SDS011;6452;41.572;23.732;2023-04-07T08:40:15;2.50;;;2.40;;
12776;SDS011;6452;41.572;23.732;2023-04-07T08:42:42;2.83;;;2.63;;
12776;SDS011;6452;41.572;23.732;2023-04-07T08:45:11;3.40;;;3.10;;
12776;SDS011;6452;41.572;23.732;2023-04-07T08:47:37;2.83;;;2.42;;
12776;SDS011;6452;41.572;23.732;2023-04-07T08:50:06;2.45;;;2.35;;
12776;SDS011;6452;41.572;23.732;2023-04-07T08:52:44;2.55;;;2.45;;
12776;SDS011;6452;41.572;23.732;2023-04-07T08:55:30;2.35;;;2.25;;
12776;SDS011;6452;41.572;23.732;2023-04-07T08:57:56;3.17;;;2.85;;
12776;SDS011;6452;41.572;23.732;2023-04-07T09:00:22;2.58;;;2.47;;
12776;SDS011;6452;41.572;23.732;2023-04-07T09:02:48;2.70;;;2.50;;
12776;SDS011;6452;41.572;23.732;2023-04-07T09:05:16;2.50;;;2.40;;
12776;SDS011;6452;41.572;23.732;2023-04-07T09:07:42;2.72;;;2.53;;
12776;SDS011;6452;41.572;23.732;2023-04-07T09:10:09;3.35;;;2.97;;
12776;SDS011;6452;41.572;23.732;2023-04-07T09:12:34;2.75;;;2.55;;
12776;SDS011;6452;41.572;23.732;2023-04-07T09:15:01;3.05;;;2.85;;
12776;SDS011;6452;41.572;23.732;2023-04-07T09:17:27;2.75;;;2.55;;
12776;SDS011;6452;41.572;23.732;2023-04-07T09:19:57;2.85;;;2.65;;
12776;SDS011;6452;41.572;23.732;2023-04-07T09:22:42;2.92;;;2.72;;
12776;SDS011;6452;41.572;23.732;2023-04-07T09:25:28;2.97;;;2.78;;
12776;SDS011;6452;41.572;23.732;2023-04-07T09:27:56;3.20;;;3.00;;
12776;SDS011;6452;41.572;23.732;2023-04-07T09:30:22;2.90;;;2.70;;
12776;SDS011;6452;41.572;23.732;2023-04-07T09:32:48;3.08;;;2.88;;
12776;SDS011;6452;41.572;23.732;2023-04-07T09:35:18;3.08;;;2.65;;
12776;SDS011;6452;41.572;23.732;2023-04-07T09:38:06;2.67;;;2.47;;
12776;SDS011;6452;41.572;23.732;2023-04-07T09:40:32;2.58;;;2.47;;
12776;SDS011;6452;41.572;23.732;2023-04-07T09:42:59;2.83;;;2.72;;
12776;SDS011;6452;41.572;23.732;2023-04-07T09:45:29;2.90;;;2.70;;
12776;SDS011;6452;41.572;23.732;2023-04-07T09:48:04;2.80;;;2.60;;
12776;SDS011;6452;41.572;23.732;2023-04-07T09:50:34;2.40;;;2.30;;
12776;SDS011;6452;41.572;23.732;2023-04-07T09:53:01;2.55;;;2.45;;
12776;SDS011;6452;41.572;23.732;2023-04-07T09:55:29;2.80;;;2.60;;
12776;SDS011;6452;41.572;23.732;2023-04-07T09:57:54;2.60;;;2.45;;
12776;SDS011;6452;41.572;23.732;2023-04-07T10:00:21;2.55;;;2.35;;
12776;SDS011;6452;41.572;23.732;2023-04-07T10:02:47;2.88;;;2.67;;
12776;SDS011;6452;41.572;23.732;2023-04-07T10:05:13;2.60;;;2.42;;
12776;SDS011;6452;41.572;23.732;2023-04-07T10:07:39;2.63;;;2.42;;
12776;SDS011;6452;41.572;23.732;2023-04-07T10:10:06;2.97;;;2.85;;
12776;SDS011;6452;41.572;23.732;2023-04-07T10:12:35;2.63;;;2.42;;
12776;SDS011;6452;41.572;23.732;2023-04-07T10:15:02;3.22;;;2.95;;
12776;SDS011;6452;41.572;23.732;2023-04-07T10:17:29;2.88;;;2.67;;
12776;SDS011;6452;41.572;23.732;2023-04-07T10:19:57;2.92;;;2.72;;
12776;SDS011;6452;41.572;23.732;2023-04-07T10:22:23;3.33;;;3.10;;
12776;SDS011;6452;41.572;23.732;2023-04-07T10:25:01;2.95;;;2.75;;
12776;SDS011;6452;41.572;23.732;2023-04-07T10:27:33;2.30;;;2.20;;
12776;SDS011;6452;41.572;23.732;2023-04-07T10:29:59;2.90;;;2.80;;
12776;SDS011;6452;41.572;23.732;2023-04-07T10:32:26;2.45;;;2.25;;
12776;SDS011;6452;41.572;23.732;2023-04-07T10:37:19;2.67;;;2.47;;
12776;SDS011;6452;41.572;23.732;2023-04-07T10:39:48;2.70;;;2.60;;
12776;SDS011;6452;41.572;23.732;2023-04-07T10:45:00;3.17;;;2.88;;
12776;SDS011;6452;41.572;23.732;2023-04-07T10:47:27;3.55;;;2.95;;
12776;SDS011;6452;41.572;23.732;2023-04-07T10:52:37;2.33;;;2.22;;
12776;SDS011;6452;41.572;23.732;2023-04-07T11:00:32;2.30;;;2.20;;
12776;SDS011;6452;41.572;23.732;2023-04-07T11:03:02;2.55;;;2.45;;
12776;SDS011;6452;41.572;23.732;2023-04-07T11:05:35;1.70;;;1.70;;
12776;SDS011;6452;41.572;23.732;2023-04-07T11:08:03;2.20;;;2.20;;
12776;SDS011;6452;41.572;23.732;2023-04-07T11:10:31;2.22;;;2.13;;
12776;SDS011;6452;41.572;23.732;2023-04-07T11:12:57;2.20;;;2.10;;
12776;SDS011;6452;41.572;23.732;2023-04-07T11:15:24;2.35;;;2.25;;
12776;SDS011;6452;41.572;23.732;2023-04-07T11:23:13;1.98;;;1.95;;
12776;SDS011;6452;41.572;23.732;2023-04-07T11:25:40;2.20;;;2.10;;
12776;SDS011;6452;41.572;23.732;2023-04-07T11:28:08;1.98;;;1.90;;
12776;SDS011;6452;41.572;23.732;2023-04-07T11:30:34;1.63;;;1.63;;
12776;SDS011;6452;41.572;23.732;2023-04-07T11:33:02;1.52;;;1.52;;
12776;SDS011;6452;41.572;23.732;2023-04-07T11:35:28;1.70;;;1.70;;
12776;SDS011;6452;41.572;23.732;2023-04-07T11:38:00;2.03;;;1.92;;
12776;SDS011;6452;41.572;23.732;2023-04-07T11:40:34;1.80;;;1.80;;
12776;SDS011;6452;41.572;23.732;2023-04-07T11:43:02;1.50;;;1.50;;
12776;SDS011;6452;41.572;23.732;2023-04-07T11:45:28;1.42;;;1.42;;
12776;SDS011;6452;41.572;23.732;2023-04-07T11:47:55;1.40;;;1.40;;
12776;SDS011;6452;41.572;23.732;2023-04-07T11:50:37;1.00;;;1.00;;
12776;SDS011;6452;41.572;23.732;2023-04-07T11:53:04;1.10;;;1.10;;
12776;SDS011;6452;41.572;23.732;2023-04-07T11:55:30;0.90;;;0.90;;
12776;SDS011;6452;41.572;23.732;2023-04-07T11:58:04;1.10;;;1.10;;
12776;SDS011;6452;41.572;23.732;2023-04-07T12:00:30;1.50;;;1.40;;
12776;SDS011;6452;41.572;23.732;2023-04-07T12:02:56;1.27;;;1.27;;
12776;SDS011;6452;41.572;23.732;2023-04-07T12:05:22;1.25;;;1.25;;
12776;SDS011;6452;41.572;23.732;2023-04-07T12:07:52;1.17;;;1.17;;
12776;SDS011;6452;41.572;23.732;2023-04-07T12:10:20;1.30;;;1.30;;
12776;SDS011;6452;41.572;23.732;2023-04-07T12:12:46;1.35;;;1.33;;
12776;SDS011;6452;41.572;23.732;2023-04-07T12:15:12;0.77;;;0.77;;
12776;SDS011;6452;41.572;23.732;2023-04-07T12:17:42;1.02;;;1.02;;
12776;SDS011;6452;41.572;23.732;2023-04-07T12:20:08;1.23;;;1.23;;
12776;SDS011;6452;41.572;23.732;2023-04-07T12:22:36;0.90;;;0.90;;
12776;SDS011;6452;41.572;23.732;2023-04-07T12:25:02;1.05;;;1.05;;
12776;SDS011;6452;41.572;23.732;2023-04-07T12:27:27;1.50;;;1.20;;
12776;SDS011;6452;41.572;23.732;2023-04-07T12:29:54;1.27;;;1.27;;
12776;SDS011;6452;41.572;23.732;2023-04-07T12:32:20;1.30;;;1.20;;
12776;SDS011;6452;41.572;23.732;2023-04-07T12:34:46;1.10;;;1.10;;
12776;SDS011;6452;41.572;23.732;2023-04-07T12:37:12;2.03;;;1.50;;
12776;SDS011;6452;41.572;23.732;2023-04-07T12:39:38;2.40;;;1.20;;
12776;SDS011;6452;41.572;23.732;2023-04-07T12:42:05;1.40;;;1.40;;
12776;SDS011;6452;41.572;23.732;2023-04-07T12:44:32;1.48;;;1.48;;
12776;SDS011;6452;41.572;23.732;2023-04-07T12:46:58;2.50;;;1.52;;
12776;SDS011;6452;41.572;23.732;2023-04-07T12:49:25;1.48;;;1.38;;
12776;SDS011;6452;41.572;23.732;2023-04-07T12:51:51;1.30;;;1.30;;
12776;SDS011;6452;41.572;23.732;2023-04-07T12:54:18;1.50;;;1.50;;
12776;SDS011;6452;41.572;23.732;2023-04-07T12:56:43;2.05;;;1.75;;
12776;SDS011;6452;41.572;23.732;2023-04-07T12:59:10;1.55;;;1.45;;
12776;SDS011;6452;41.572;23.732;2023-04-07T13:01:38;1.80;;;1.70;;
12776;SDS011;6452;41.572;23.732;2023-04-07T13:04:04;1.48;;;1.48;;
12776;SDS011;6452;41.572;23.732;2023-04-07T13:06:30;1.45;;;1.30;;
12776;SDS011;6452;41.572;23.732;2023-04-07T13:08:56;1.50;;;1.50;;
12776;SDS011;6452;41.572;23.732;2023-04-07T13:11:22;1.35;;;1.35;;
12776;SDS011;6452;41.572;23.732;2023-04-07T13:13:48;1.73;;;1.63;;
12776;SDS011;6452;41.572;23.732;2023-04-07T13:16:14;2.30;;;1.60;;
12776;SDS011;6452;41.572;23.732;2023-04-07T13:18:41;1.98;;;1.80;;
12776;SDS011;6452;41.572;23.732;2023-04-07T13:21:08;1.70;;;1.60;;
12776;SDS011;6452;41.572;23.732;2023-04-07T13:23:34;1.40;;;1.40;;
12776;SDS011;6452;41.572;23.732;2023-04-07T13:26:00;1.60;;;1.60;;
12776;SDS011;6452;41.572;23.732;2023-04-07T13:28:27;2.28;;;2.05;;
12776;SDS011;6452;41.572;23.732;2023-04-07T13:30:53;1.92;;;1.83;;
12776;SDS011;6452;41.572;23.732;2023-04-07T13:33:19;1.25;;;1.25;;
12776;SDS011;6452;41.572;23.732;2023-04-07T13:35:45;1.75;;;1.65;;
12776;SDS011;6452;41.572;23.732;2023-04-07T13:38:12;1.70;;;1.60;;
12776;SDS011;6452;41.572;23.732;2023-04-07T13:40:38;2.22;;;2.03;;
12776;SDS011;6452;41.572;23.732;2023-04-07T13:43:05;1.50;;;1.40;;
12776;SDS011;6452;41.572;23.732;2023-04-07T13:45:32;2.33;;;1.90;;
12776;SDS011;6452;41.572;23.732;2023-04-07T13:47:58;1.80;;;1.70;;
12776;SDS011;6452;41.572;23.732;2023-04-07T13:50:24;1.85;;;1.75;;
12776;SDS011;6452;41.572;23.732;2023-04-07T13:52:50;1.55;;;1.45;;
12776;SDS011;6452;41.572;23.732;2023-04-07T13:55:17;1.85;;;1.75;;
12776;SDS011;6452;41.572;23.732;2023-04-07T13:57:44;2.45;;;2.25;;
12776;SDS011;6452;41.572;23.732;2023-04-07T14:00:11;1.83;;;1.75;;
12776;SDS011;6452;41.572;23.732;2023-04-07T14:02:39;3.97;;;3.35;;
12776;SDS011;6452;41.572;23.732;2023-04-07T14:05:06;2.08;;;1.98;;
12776;SDS011;6452;41.572;23.732;2023-04-07T14:07:32;2.10;;;2.00;;
12776;SDS011;6452;41.572;23.732;2023-04-07T14:09:58;2.63;;;1.85;;
12776;SDS011;6452;41.572;23.732;2023-04-07T14:12:25;2.15;;;2.05;;
12776;SDS011;6452;41.572;23.732;2023-04-07T14:14:51;2.08;;;1.98;;
12776;SDS011;6452;41.572;23.732;2023-04-07T14:17:19;2.60;;;2.45;;
12776;SDS011;6452;41.572;23.732;2023-04-07T14:19:45;2.33;;;2.22;;
12776;SDS011;6452;41.572;23.732;2023-04-07T14:22:12;3.58;;;2.83;;
12776;SDS011;6452;41.572;23.732;2023-04-07T14:24:39;2.78;;;2.15;;
12776;SDS011;6452;41.572;23.732;2023-04-07T14:27:05;2.58;;;2.38;;
12776;SDS011;6452;41.572;23.732;2023-04-07T14:29:31;2.72;;;2.30;;
12776;SDS011;6452;41.572;23.732;2023-04-07T14:31:57;2.83;;;2.53;;
12776;SDS011;6452;41.572;23.732;2023-04-07T14:34:23;1.92;;;1.83;;
12776;SDS011;6452;41.572;23.732;2023-04-07T14:36:53;2.65;;;2.33;;
12776;SDS011;6452;41.572;23.732;2023-04-07T14:39:20;2.22;;;2.13;;
12776;SDS011;6452;41.572;23.732;2023-04-07T14:41:47;2.60;;;2.25;;
12776;SDS011;6452;41.572;23.732;2023-04-07T14:44:13;2.45;;;2.20;;
12776;SDS011;6452;41.572;23.732;2023-04-07T14:46:38;2.63;;;2.28;;
12776;SDS011;6452;41.572;23.732;2023-04-07T14:49:05;2.25;;;2.05;;
12776;SDS011;6452;41.572;23.732;2023-04-07T14:51:30;2.05;;;1.95;;
12776;SDS011;6452;41.572;23.732;2023-04-07T14:53:57;3.40;;;3.08;;
12776;SDS011;6452;41.572;23.732;2023-04-07T14:56:23;2.33;;;2.17;;
12776;SDS011;6452;41.572;23.732;2023-04-07T14:58:49;2.72;;;2.53;;
12776;SDS011;6452;41.572;23.732;2023-04-07T15:01:15;2.78;;;2.58;;
12776;SDS011;6452;41.572;23.732;2023-04-07T15:03:45;2.75;;;2.55;;
12776;SDS011;6452;41.572;23.732;2023-04-07T15:06:11;5.10;;;2.45;;
12776;SDS011;6452;41.572;23.732;2023-04-07T15:08:38;2.80;;;2.60;;
12776;SDS011;6452;41.572;23.732;2023-04-07T15:11:05;5.25;;;3.17;;